sensor_id;sensor_type;location;lat;lon;timestamp;P1;durP1;ratioP1;P2;durP2;ratioP2
59052;SDS011;44843;44.728;10.396;2023-07-22T00:01:05;9.45;;;3.67;;
59052;SDS011;44843;44.728;10.396;2023-07-22T00:03:30;10.07;;;3.78;;
59052;SDS011;44843;44.728;10.396;2023-07-22T00:06:06;6.13;;;4.40;;
59052;SDS011;44843;44.728;10.396;2023-07-22T00:08:32;8.77;;;4.57;;
59052;SDS011;44843;44.728;10.396;2023-07-22T00:10:59;11.85;;;4.47;;
59052;SDS011;44843;44.728;10.396;2023-07-22T00:13:24;10.43;;;5.22;;
59052;SDS011;44843;44.728;10.396;2023-07-22T00:15:53;7.13;;;4.35;;
59052;SDS011;44843;44.728;10.396;2023-07-22T00:18:19;11.13;;;4.38;;
59052;SDS011;44843;44.728;10.396;2023-07-22T00:20:44;10.35;;;5.05;;
59052;SDS011;44843;44.728;10.396;2023-07-22T00:23:10;8.35;;;5.03;;
59052;SDS011;44843;44.728;10.396;2023-07-22T00:25:35;11.75;;;5.07;;
59052;SDS011;44843;44.728;10.396;2023-07-22T00:28:02;8.88;;;5.18;;
59052;SDS011;44843;44.728;10.396;2023-07-22T00:30:29;8.77;;;4.53;;
59052;SDS011;44843;44.728;10.396;2023-07-22T00:32:54;9.02;;;4.38;;
59052;SDS011;44843;44.728;10.396;2023-07-22T00:35:20;11.73;;;5.13;;
59052;SDS011;44843;44.728;10.396;2023-07-22T00:37:46;8.05;;;4.95;;
59052;SDS011;44843;44.728;10.396;2023-07-22T00:40:12;8.95;;;4.82;;
59052;SDS011;44843;44.728;10.396;2023-07-22T00:42:38;6.60;;;4.22;;
59052;SDS011;44843;44.728;10.396;2023-07-22T00:45:04;9.20;;;4.38;;
59052;SDS011;44843;44.728;10.396;2023-07-22T00:47:30;8.25;;;4.57;;
59052;SDS011;44843;44.728;10.396;2023-07-22T00:49:58;8.32;;;5.03;;
59052;SDS011;44843;44.728;10.396;2023-07-22T00:52:25;10.02;;;5.40;;
59052;SDS011;44843;44.728;10.396;2023-07-22T00:54:50;6.65;;;4.55;;
59052;SDS011;44843;44.728;10.396;2023-07-22T00:57:16;10.35;;;4.55;;
59052;SDS011;44843;44.728;10.396;2023-07-22T00:59:41;8.13;;;4.75;;
59052;SDS011;44843;44.728;10.396;2023-07-22T01:02:07;8.57;;;4.50;;
59052;SDS011;44843;44.728;10.396;2023-07-22T01:04:33;12.18;;;5.00;;
59052;SDS011;44843;44.728;10.396;2023-07-22T01:06:59;11.07;;;4.80;;
59052;SDS011;44843;44.728;10.396;2023-07-22T01:09:33;6.25;;;4.15;;
59052;SDS011;44843;44.728;10.396;2023-07-22T01:12:00;10.50;;;5.00;;
59052;SDS011;44843;44.728;10.396;2023-07-22T01:14:26;7.60;;;4.85;;
59052;SDS011;44843;44.728;10.396;2023-07-22T01:16:51;9.57;;;4.68;;
59052;SDS011;44843;44.728;10.396;2023-07-22T01:19:16;7.85;;;4.55;;
59052;SDS011;44843;44.728;10.396;2023-07-22T01:21:43;7.05;;;4.78;;
59052;SDS011;44843;44.728;10.396;2023-07-22T01:24:11;8.57;;;5.18;;
59052;SDS011;44843;44.728;10.396;2023-07-22T01:26:37;8.82;;;4.28;;
59052;SDS011;44843;44.728;10.396;2023-07-22T01:29:06;8.30;;;4.63;;
59052;SDS011;44843;44.728;10.396;2023-07-22T01:31:34;7.85;;;4.30;;
59052;SDS011;44843;44.728;10.396;2023-07-22T01:34:00;10.90;;;5.10;;
59052;SDS011;44843;44.728;10.396;2023-07-22T01:36:26;7.75;;;5.07;;
59052;SDS011;44843;44.728;10.396;2023-07-22T01:38:51;11.35;;;5.47;;
59052;SDS011;44843;44.728;10.396;2023-07-22T01:41:17;7.50;;;4.80;;
59052;SDS011;44843;44.728;10.396;2023-07-22T01:43:42;12.00;;;5.45;;
59052;SDS011;44843;44.728;10.396;2023-07-22T01:46:08;13.13;;;5.35;;
59052;SDS011;44843;44.728;10.396;2023-07-22T01:48:34;11.23;;;5.90;;
59052;SDS011;44843;44.728;10.396;2023-07-22T01:50:59;10.43;;;5.70;;
59052;SDS011;44843;44.728;10.396;2023-07-22T01:53:24;8.40;;;4.97;;
59052;SDS011;44843;44.728;10.396;2023-07-22T01:55:50;7.25;;;4.72;;
59052;SDS011;44843;44.728;10.396;2023-07-22T01:58:15;8.18;;;5.50;;
59052;SDS011;44843;44.728;10.396;2023-07-22T02:00:41;9.88;;;5.20;;
59052;SDS011;44843;44.728;10.396;2023-07-22T02:03:06;8.35;;;5.05;;
59052;SDS011;44843;44.728;10.396;2023-07-22T02:05:32;8.80;;;5.45;;
59052;SDS011;44843;44.728;10.396;2023-07-22T02:07:57;9.80;;;5.90;;
59052;SDS011;44843;44.728;10.396;2023-07-22T02:10:22;8.38;;;6.07;;
59052;SDS011;44843;44.728;10.396;2023-07-22T02:12:48;9.30;;;5.55;;
59052;SDS011;44843;44.728;10.396;2023-07-22T02:15:13;8.65;;;5.70;;
59052;SDS011;44843;44.728;10.396;2023-07-22T02:17:39;10.57;;;6.07;;
59052;SDS011;44843;44.728;10.396;2023-07-22T02:20:04;10.48;;;5.30;;
59052;SDS011;44843;44.728;10.396;2023-07-22T02:22:30;8.68;;;5.97;;
59052;SDS011;44843;44.728;10.396;2023-07-22T02:24:56;8.98;;;5.93;;
59052;SDS011;44843;44.728;10.396;2023-07-22T02:27:21;9.88;;;5.10;;
59052;SDS011;44843;44.728;10.396;2023-07-22T02:29:47;9.82;;;5.15;;
59052;SDS011;44843;44.728;10.396;2023-07-22T02:32:12;14.30;;;5.97;;
59052;SDS011;44843;44.728;10.396;2023-07-22T02:34:38;10.40;;;5.55;;
59052;SDS011;44843;44.728;10.396;2023-07-22T02:37:04;10.23;;;6.05;;
59052;SDS011;44843;44.728;10.396;2023-07-22T02:39:29;8.05;;;5.78;;
59052;SDS011;44843;44.728;10.396;2023-07-22T02:41:55;8.52;;;5.85;;
59052;SDS011;44843;44.728;10.396;2023-07-22T02:44:20;15.60;;;6.03;;
59052;SDS011;44843;44.728;10.396;2023-07-22T02:46:46;8.13;;;5.90;;
59052;SDS011;44843;44.728;10.396;2023-07-22T02:49:11;8.77;;;6.18;;
59052;SDS011;44843;44.728;10.396;2023-07-22T02:51:36;7.82;;;5.80;;
59052;SDS011;44843;44.728;10.396;2023-07-22T02:54:02;10.05;;;6.47;;
59052;SDS011;44843;44.728;10.396;2023-07-22T02:56:28;10.25;;;5.70;;
59052;SDS011;44843;44.728;10.396;2023-07-22T02:58:54;11.27;;;6.72;;
59052;SDS011;44843;44.728;10.396;2023-07-22T03:01:19;8.35;;;5.07;;
59052;SDS011;44843;44.728;10.396;2023-07-22T03:03:45;10.55;;;5.60;;
59052;SDS011;44843;44.728;10.396;2023-07-22T03:06:10;7.60;;;4.90;;
59052;SDS011;44843;44.728;10.396;2023-07-22T03:08:35;9.00;;;5.18;;
59052;SDS011;44843;44.728;10.396;2023-07-22T03:11:01;7.20;;;5.38;;
59052;SDS011;44843;44.728;10.396;2023-07-22T03:13:27;8.10;;;5.40;;
59052;SDS011;44843;44.728;10.396;2023-07-22T03:15:56;8.80;;;5.68;;
59052;SDS011;44843;44.728;10.396;2023-07-22T03:18:22;7.07;;;4.95;;
59052;SDS011;44843;44.728;10.396;2023-07-22T03:20:48;8.15;;;6.07;;
59052;SDS011;44843;44.728;10.396;2023-07-22T03:23:13;10.32;;;5.55;;
59052;SDS011;44843;44.728;10.396;2023-07-22T03:25:39;9.48;;;5.78;;
59052;SDS011;44843;44.728;10.396;2023-07-22T03:28:06;9.27;;;5.78;;
59052;SDS011;44843;44.728;10.396;2023-07-22T03:30:31;8.85;;;5.65;;
59052;SDS011;44843;44.728;10.396;2023-07-22T03:32:58;10.43;;;6.00;;
59052;SDS011;44843;44.728;10.396;2023-07-22T03:35:24;8.38;;;6.20;;
59052;SDS011;44843;44.728;10.396;2023-07-22T03:37:49;10.07;;;6.05;;
59052;SDS011;44843;44.728;10.396;2023-07-22T03:40:15;8.98;;;6.13;;
59052;SDS011;44843;44.728;10.396;2023-07-22T03:42:52;7.55;;;5.40;;
59052;SDS011;44843;44.728;10.396;2023-07-22T03:45:20;9.48;;;6.35;;
59052;SDS011;44843;44.728;10.396;2023-07-22T03:47:49;9.40;;;6.10;;
59052;SDS011;44843;44.728;10.396;2023-07-22T03:50:16;10.18;;;6.18;;
59052;SDS011;44843;44.728;10.396;2023-07-22T03:52:41;8.80;;;6.38;;
59052;SDS011;44843;44.728;10.396;2023-07-22T03:55:07;12.73;;;6.25;;
59052;SDS011;44843;44.728;10.396;2023-07-22T03:57:33;10.40;;;7.07;;
59052;SDS011;44843;44.728;10.396;2023-07-22T03:59:59;10.25;;;6.65;;
59052;SDS011;44843;44.728;10.396;2023-07-22T04:02:25;8.82;;;6.22;;
59052;SDS011;44843;44.728;10.396;2023-07-22T04:04:52;11.43;;;6.43;;
59052;SDS011;44843;44.728;10.396;2023-07-22T04:07:19;8.68;;;6.28;;
59052;SDS011;44843;44.728;10.396;2023-07-22T04:09:44;8.23;;;6.15;;
59052;SDS011;44843;44.728;10.396;2023-07-22T04:12:10;9.27;;;5.63;;
59052;SDS011;44843;44.728;10.396;2023-07-22T04:14:36;14.57;;;5.95;;
59052;SDS011;44843;44.728;10.396;2023-07-22T04:17:02;14.00;;;6.22;;
59052;SDS011;44843;44.728;10.396;2023-07-22T04:19:29;9.32;;;6.07;;
59052;SDS011;44843;44.728;10.396;2023-07-22T04:21:55;10.60;;;5.65;;
59052;SDS011;44843;44.728;10.396;2023-07-22T04:24:20;10.38;;;6.63;;
59052;SDS011;44843;44.728;10.396;2023-07-22T04:26:45;10.52;;;5.93;;
59052;SDS011;44843;44.728;10.396;2023-07-22T04:29:11;12.18;;;6.00;;
59052;SDS011;44843;44.728;10.396;2023-07-22T04:31:38;8.18;;;6.30;;
59052;SDS011;44843;44.728;10.396;2023-07-22T04:34:03;10.73;;;5.78;;
59052;SDS011;44843;44.728;10.396;2023-07-22T04:36:30;10.43;;;6.28;;
59052;SDS011;44843;44.728;10.396;2023-07-22T04:38:55;8.65;;;5.72;;
59052;SDS011;44843;44.728;10.396;2023-07-22T04:41:21;13.23;;;6.10;;
59052;SDS011;44843;44.728;10.396;2023-07-22T04:43:46;10.63;;;7.35;;
59052;SDS011;44843;44.728;10.396;2023-07-22T04:46:12;14.48;;;7.18;;
59052;SDS011;44843;44.728;10.396;2023-07-22T04:48:38;11.95;;;7.07;;
59052;SDS011;44843;44.728;10.396;2023-07-22T04:51:04;12.20;;;6.70;;
59052;SDS011;44843;44.728;10.396;2023-07-22T04:53:29;14.35;;;7.68;;
59052;SDS011;44843;44.728;10.396;2023-07-22T04:55:55;13.48;;;7.07;;
59052;SDS011;44843;44.728;10.396;2023-07-22T04:58:20;11.63;;;6.85;;
59052;SDS011;44843;44.728;10.396;2023-07-22T05:00:46;11.88;;;6.47;;
59052;SDS011;44843;44.728;10.396;2023-07-22T05:03:13;11.27;;;6.53;;
59052;SDS011;44843;44.728;10.396;2023-07-22T05:05:39;8.80;;;5.55;;
59052;SDS011;44843;44.728;10.396;2023-07-22T05:08:04;9.25;;;6.10;;
59052;SDS011;44843;44.728;10.396;2023-07-22T05:10:32;11.13;;;6.03;;
59052;SDS011;44843;44.728;10.396;2023-07-22T05:12:57;10.18;;;6.38;;
59052;SDS011;44843;44.728;10.396;2023-07-22T05:15:23;10.02;;;6.57;;
59052;SDS011;44843;44.728;10.396;2023-07-22T05:17:48;10.27;;;6.60;;
59052;SDS011;44843;44.728;10.396;2023-07-22T05:20:14;9.63;;;6.05;;
59052;SDS011;44843;44.728;10.396;2023-07-22T05:22:39;14.98;;;6.95;;
59052;SDS011;44843;44.728;10.396;2023-07-22T05:25:05;11.38;;;6.93;;
59052;SDS011;44843;44.728;10.396;2023-07-22T05:27:32;11.75;;;6.18;;
59052;SDS011;44843;44.728;10.396;2023-07-22T05:29:57;12.60;;;6.38;;
59052;SDS011;44843;44.728;10.396;2023-07-22T05:32:23;11.15;;;6.43;;
59052;SDS011;44843;44.728;10.396;2023-07-22T05:34:48;14.05;;;6.78;;
59052;SDS011;44843;44.728;10.396;2023-07-22T05:37:14;10.77;;;6.70;;
59052;SDS011;44843;44.728;10.396;2023-07-22T05:39:39;17.90;;;6.85;;
59052;SDS011;44843;44.728;10.396;2023-07-22T05:42:05;10.88;;;7.25;;
59052;SDS011;44843;44.728;10.396;2023-07-22T05:44:30;11.45;;;6.50;;
59052;SDS011;44843;44.728;10.396;2023-07-22T05:46:56;9.35;;;6.40;;
59052;SDS011;44843;44.728;10.396;2023-07-22T05:49:21;12.88;;;6.55;;
59052;SDS011;44843;44.728;10.396;2023-07-22T05:51:47;8.50;;;6.15;;
59052;SDS011;44843;44.728;10.396;2023-07-22T05:54:12;12.20;;;6.95;;
59052;SDS011;44843;44.728;10.396;2023-07-22T05:56:38;11.65;;;7.13;;
59052;SDS011;44843;44.728;10.396;2023-07-22T05:59:03;14.98;;;6.88;;
59052;SDS011;44843;44.728;10.396;2023-07-22T06:01:29;14.75;;;6.60;;
59052;SDS011;44843;44.728;10.396;2023-07-22T06:03:54;13.90;;;7.22;;
59052;SDS011;44843;44.728;10.396;2023-07-22T06:06:20;14.52;;;7.50;;
59052;SDS011;44843;44.728;10.396;2023-07-22T06:08:45;11.68;;;6.88;;
59052;SDS011;44843;44.728;10.396;2023-07-22T06:11:11;9.75;;;5.72;;
59052;SDS011;44843;44.728;10.396;2023-07-22T06:13:36;14.93;;;7.43;;
59052;SDS011;44843;44.728;10.396;2023-07-22T06:18:27;15.20;;;6.97;;
59052;SDS011;44843;44.728;10.396;2023-07-22T06:23:18;11.15;;;7.18;;
59052;SDS011;44843;44.728;10.396;2023-07-22T06:25:44;15.23;;;8.15;;
59052;SDS011;44843;44.728;10.396;2023-07-22T06:28:09;14.30;;;8.20;;
59052;SDS011;44843;44.728;10.396;2023-07-22T06:30:35;17.35;;;8.85;;
59052;SDS011;44843;44.728;10.396;2023-07-22T06:33:00;13.75;;;8.18;;
59052;SDS011;44843;44.728;10.396;2023-07-22T06:35:26;13.68;;;8.13;;
59052;SDS011;44843;44.728;10.396;2023-07-22T06:37:51;17.85;;;7.88;;
59052;SDS011;44843;44.728;10.396;2023-07-22T06:40:17;15.75;;;9.80;;
59052;SDS011;44843;44.728;10.396;2023-07-22T06:42:42;17.50;;;9.57;;
59052;SDS011;44843;44.728;10.396;2023-07-22T06:45:08;14.05;;;8.95;;
59052;SDS011;44843;44.728;10.396;2023-07-22T06:47:34;15.88;;;8.48;;
59052;SDS011;44843;44.728;10.396;2023-07-22T06:50:01;15.82;;;9.60;;
59052;SDS011;44843;44.728;10.396;2023-07-22T06:52:27;18.63;;;9.50;;
59052;SDS011;44843;44.728;10.396;2023-07-22T06:54:53;17.45;;;10.35;;
59052;SDS011;44843;44.728;10.396;2023-07-22T06:57:18;20.75;;;10.77;;
59052;SDS011;44843;44.728;10.396;2023-07-22T06:59:44;17.05;;;8.55;;
59052;SDS011;44843;44.728;10.396;2023-07-22T07:02:09;15.32;;;9.30;;
59052;SDS011;44843;44.728;10.396;2023-07-22T07:04:35;18.73;;;9.75;;
59052;SDS011;44843;44.728;10.396;2023-07-22T07:07:00;24.95;;;10.55;;
59052;SDS011;44843;44.728;10.396;2023-07-22T07:09:26;16.15;;;10.70;;
59052;SDS011;44843;44.728;10.396;2023-07-22T07:11:51;17.17;;;10.48;;
59052;SDS011;44843;44.728;10.396;2023-07-22T07:14:17;22.42;;;12.40;;
59052;SDS011;44843;44.728;10.396;2023-07-22T07:16:43;16.92;;;10.98;;
59052;SDS011;44843;44.728;10.396;2023-07-22T07:19:08;21.42;;;11.40;;
59052;SDS011;44843;44.728;10.396;2023-07-22T07:21:35;19.55;;;11.15;;
59052;SDS011;44843;44.728;10.396;2023-07-22T07:24:00;20.30;;;9.45;;
59052;SDS011;44843;44.728;10.396;2023-07-22T07:26:26;14.35;;;9.85;;
59052;SDS011;44843;44.728;10.396;2023-07-22T07:28:52;16.02;;;10.20;;
59052;SDS011;44843;44.728;10.396;2023-07-22T07:31:17;17.85;;;10.85;;
59052;SDS011;44843;44.728;10.396;2023-07-22T07:33:43;19.55;;;11.48;;
59052;SDS011;44843;44.728;10.396;2023-07-22T07:36:08;21.67;;;11.50;;
59052;SDS011;44843;44.728;10.396;2023-07-22T07:38:34;19.90;;;10.77;;
59052;SDS011;44843;44.728;10.396;2023-07-22T07:41:01;23.65;;;11.63;;
59052;SDS011;44843;44.728;10.396;2023-07-22T07:43:27;17.88;;;10.30;;
59052;SDS011;44843;44.728;10.396;2023-07-22T07:48:37;20.27;;;10.63;;
59052;SDS011;44843;44.728;10.396;2023-07-22T07:51:02;23.60;;;10.75;;
59052;SDS011;44843;44.728;10.396;2023-07-22T07:53:28;19.35;;;11.75;;
59052;SDS011;44843;44.728;10.396;2023-07-22T07:55:53;20.23;;;11.10;;
59052;SDS011;44843;44.728;10.396;2023-07-22T07:58:19;20.42;;;10.57;;
59052;SDS011;44843;44.728;10.396;2023-07-22T08:00:44;17.90;;;10.15;;
59052;SDS011;44843;44.728;10.396;2023-07-22T08:03:10;17.10;;;10.55;;
59052;SDS011;44843;44.728;10.396;2023-07-22T08:05:35;17.63;;;9.60;;
59052;SDS011;44843;44.728;10.396;2023-07-22T08:08:01;16.35;;;10.35;;
59052;SDS011;44843;44.728;10.396;2023-07-22T08:10:26;16.98;;;10.13;;
59052;SDS011;44843;44.728;10.396;2023-07-22T08:12:51;18.52;;;10.02;;
59052;SDS011;44843;44.728;10.396;2023-07-22T08:15:17;19.52;;;10.55;;
59052;SDS011;44843;44.728;10.396;2023-07-22T08:17:42;15.95;;;9.95;;
59052;SDS011;44843;44.728;10.396;2023-07-22T08:20:08;17.55;;;9.82;;
59052;SDS011;44843;44.728;10.396;2023-07-22T08:22:34;17.27;;;9.77;;
59052;SDS011;44843;44.728;10.396;2023-07-22T08:24:59;20.75;;;10.77;;
59052;SDS011;44843;44.728;10.396;2023-07-22T08:27:25;17.80;;;9.48;;
59052;SDS011;44843;44.728;10.396;2023-07-22T08:29:50;21.60;;;10.32;;
59052;SDS011;44843;44.728;10.396;2023-07-22T08:32:16;18.17;;;9.43;;
59052;SDS011;44843;44.728;10.396;2023-07-22T08:34:41;21.05;;;10.23;;
59052;SDS011;44843;44.728;10.396;2023-07-22T08:37:06;17.67;;;8.60;;
59052;SDS011;44843;44.728;10.396;2023-07-22T08:39:32;15.10;;;9.05;;
59052;SDS011;44843;44.728;10.396;2023-07-22T08:41:57;15.13;;;7.95;;
59052;SDS011;44843;44.728;10.396;2023-07-22T08:44:27;13.98;;;8.18;;
59052;SDS011;44843;44.728;10.396;2023-07-22T08:46:59;11.48;;;7.38;;
59052;SDS011;44843;44.728;10.396;2023-07-22T08:49:26;16.50;;;8.18;;
59052;SDS011;44843;44.728;10.396;2023-07-22T08:51:53;15.13;;;7.18;;
59052;SDS011;44843;44.728;10.396;2023-07-22T08:54:20;14.27;;;8.45;;
59052;SDS011;44843;44.728;10.396;2023-07-22T08:56:47;14.57;;;8.00;;
59052;SDS011;44843;44.728;10.396;2023-07-22T08:59:15;15.20;;;7.97;;
59052;SDS011;44843;44.728;10.396;2023-07-22T09:01:41;13.40;;;7.35;;
59052;SDS011;44843;44.728;10.396;2023-07-22T09:04:07;14.48;;;7.20;;
59052;SDS011;44843;44.728;10.396;2023-07-22T09:06:33;12.93;;;7.47;;
59052;SDS011;44843;44.728;10.396;2023-07-22T09:08:59;16.90;;;7.97;;
59052;SDS011;44843;44.728;10.396;2023-07-22T09:11:26;11.32;;;6.78;;
59052;SDS011;44843;44.728;10.396;2023-07-22T09:13:51;15.00;;;7.97;;
59052;SDS011;44843;44.728;10.396;2023-07-22T09:16:18;9.10;;;5.60;;
59052;SDS011;44843;44.728;10.396;2023-07-22T09:18:43;11.40;;;7.43;;
59052;SDS011;44843;44.728;10.396;2023-07-22T09:21:09;11.85;;;7.30;;
59052;SDS011;44843;44.728;10.396;2023-07-22T09:23:35;12.18;;;7.07;;
59052;SDS011;44843;44.728;10.396;2023-07-22T09:26:11;11.93;;;7.05;;
59052;SDS011;44843;44.728;10.396;2023-07-22T09:31:32;19.20;;;8.65;;
59052;SDS011;44843;44.728;10.396;2023-07-22T09:34:14;13.07;;;5.38;;
59052;SDS011;44843;44.728;10.396;2023-07-22T09:36:52;13.80;;;6.65;;
59052;SDS011;44843;44.728;10.396;2023-07-22T09:39:19;12.45;;;6.38;;
59052;SDS011;44843;44.728;10.396;2023-07-22T09:41:46;11.13;;;6.78;;
59052;SDS011;44843;44.728;10.396;2023-07-22T09:44:11;11.02;;;5.50;;
59052;SDS011;44843;44.728;10.396;2023-07-22T09:46:39;15.02;;;6.93;;
59052;SDS011;44843;44.728;10.396;2023-07-22T09:49:06;11.63;;;5.75;;
59052;SDS011;44843;44.728;10.396;2023-07-22T09:51:34;10.77;;;5.97;;
59052;SDS011;44843;44.728;10.396;2023-07-22T09:54:01;10.90;;;5.55;;
59052;SDS011;44843;44.728;10.396;2023-07-22T09:56:28;13.23;;;6.30;;
59052;SDS011;44843;44.728;10.396;2023-07-22T09:58:53;15.70;;;6.07;;
59052;SDS011;44843;44.728;10.396;2023-07-22T10:01:19;12.75;;;5.75;;
59052;SDS011;44843;44.728;10.396;2023-07-22T10:03:47;14.82;;;6.03;;
59052;SDS011;44843;44.728;10.396;2023-07-22T10:06:28;10.38;;;4.68;;
59052;SDS011;44843;44.728;10.396;2023-07-22T10:08:56;7.50;;;4.90;;
59052;SDS011;44843;44.728;10.396;2023-07-22T10:11:26;14.70;;;6.35;;
59052;SDS011;44843;44.728;10.396;2023-07-22T10:13:53;11.18;;;4.50;;
59052;SDS011;44843;44.728;10.396;2023-07-22T10:16:20;16.00;;;5.05;;
59052;SDS011;44843;44.728;10.396;2023-07-22T10:18:48;14.00;;;6.28;;
59052;SDS011;44843;44.728;10.396;2023-07-22T10:21:14;11.45;;;5.72;;
59052;SDS011;44843;44.728;10.396;2023-07-22T10:23:40;10.90;;;4.93;;
59052;SDS011;44843;44.728;10.396;2023-07-22T10:26:06;11.45;;;5.53;;
59052;SDS011;44843;44.728;10.396;2023-07-22T10:28:32;10.48;;;4.65;;
59052;SDS011;44843;44.728;10.396;2023-07-22T10:30:58;13.90;;;5.78;;
59052;SDS011;44843;44.728;10.396;2023-07-22T10:33:24;10.80;;;5.07;;
59052;SDS011;44843;44.728;10.396;2023-07-22T10:36:03;12.23;;;5.03;;
59052;SDS011;44843;44.728;10.396;2023-07-22T10:38:38;9.55;;;4.57;;
59052;SDS011;44843;44.728;10.396;2023-07-22T10:41:14;9.82;;;5.10;;
59052;SDS011;44843;44.728;10.396;2023-07-22T10:43:54;12.20;;;5.03;;
59052;SDS011;44843;44.728;10.396;2023-07-22T10:46:30;9.82;;;4.43;;
59052;SDS011;44843;44.728;10.396;2023-07-22T10:49:14;8.18;;;4.30;;
59052;SDS011;44843;44.728;10.396;2023-07-22T10:51:41;8.50;;;4.93;;
59052;SDS011;44843;44.728;10.396;2023-07-22T10:54:13;12.60;;;5.20;;
59052;SDS011;44843;44.728;10.396;2023-07-22T10:56:43;10.13;;;4.93;;
59052;SDS011;44843;44.728;10.396;2023-07-22T10:59:10;9.30;;;3.70;;
59052;SDS011;44843;44.728;10.396;2023-07-22T11:01:36;8.90;;;4.60;;
59052;SDS011;44843;44.728;10.396;2023-07-22T11:07:03;10.10;;;4.45;;
59052;SDS011;44843;44.728;10.396;2023-07-22T11:12:00;8.55;;;5.30;;
59052;SDS011;44843;44.728;10.396;2023-07-22T11:14:30;10.70;;;5.00;;
59052;SDS011;44843;44.728;10.396;2023-07-22T11:16:59;11.48;;;4.95;;
59052;SDS011;44843;44.728;10.396;2023-07-22T11:19:31;8.60;;;4.03;;
59052;SDS011;44843;44.728;10.396;2023-07-22T11:22:00;11.07;;;3.95;;
59052;SDS011;44843;44.728;10.396;2023-07-22T11:24:26;12.65;;;4.65;;
59052;SDS011;44843;44.728;10.396;2023-07-22T11:26:53;9.32;;;4.72;;
59052;SDS011;44843;44.728;10.396;2023-07-22T11:29:19;8.32;;;4.65;;
59052;SDS011;44843;44.728;10.396;2023-07-22T11:31:48;9.68;;;4.55;;
59052;SDS011;44843;44.728;10.396;2023-07-22T11:34:15;7.38;;;4.00;;
59052;SDS011;44843;44.728;10.396;2023-07-22T11:36:42;8.10;;;3.95;;
59052;SDS011;44843;44.728;10.396;2023-07-22T11:39:11;7.95;;;4.57;;
59052;SDS011;44843;44.728;10.396;2023-07-22T11:41:39;14.50;;;5.82;;
59052;SDS011;44843;44.728;10.396;2023-07-22T11:44:06;6.60;;;4.32;;
59052;SDS011;44843;44.728;10.396;2023-07-22T11:47:20;10.00;;;4.70;;
59052;SDS011;44843;44.728;10.396;2023-07-22T11:51:54;8.73;;;4.53;;
59052;SDS011;44843;44.728;10.396;2023-07-22T11:54:21;10.43;;;4.18;;
59052;SDS011;44843;44.728;10.396;2023-07-22T11:56:47;6.45;;;4.20;;
59052;SDS011;44843;44.728;10.396;2023-07-22T11:59:13;11.20;;;3.85;;
59052;SDS011;44843;44.728;10.396;2023-07-22T12:01:38;8.95;;;4.10;;
59052;SDS011;44843;44.728;10.396;2023-07-22T12:04:09;11.77;;;4.38;;
59052;SDS011;44843;44.728;10.396;2023-07-22T12:06:36;17.75;;;4.20;;
59052;SDS011;44843;44.728;10.396;2023-07-22T12:09:02;17.92;;;4.20;;
59052;SDS011;44843;44.728;10.396;2023-07-22T12:11:32;33.40;;;5.18;;
59052;SDS011;44843;44.728;10.396;2023-07-22T12:16:38;17.63;;;5.57;;
59052;SDS011;44843;44.728;10.396;2023-07-22T12:19:08;15.52;;;5.78;;
59052;SDS011;44843;44.728;10.396;2023-07-22T12:21:34;20.00;;;6.03;;
59052;SDS011;44843;44.728;10.396;2023-07-22T12:24:01;15.48;;;5.82;;
59052;SDS011;44843;44.728;10.396;2023-07-22T12:28:59;13.68;;;6.85;;
59052;SDS011;44843;44.728;10.396;2023-07-22T12:31:24;20.00;;;6.75;;
59052;SDS011;44843;44.728;10.396;2023-07-22T12:33:50;14.50;;;6.97;;
59052;SDS011;44843;44.728;10.396;2023-07-22T12:36:15;11.68;;;6.60;;
59052;SDS011;44843;44.728;10.396;2023-07-22T12:38:41;18.30;;;7.13;;
59052;SDS011;44843;44.728;10.396;2023-07-22T12:41:06;16.67;;;7.18;;
59052;SDS011;44843;44.728;10.396;2023-07-22T12:43:31;10.98;;;6.05;;
59052;SDS011;44843;44.728;10.396;2023-07-22T12:45:57;20.67;;;6.78;;
59052;SDS011;44843;44.728;10.396;2023-07-22T12:48:22;10.35;;;5.57;;
59052;SDS011;44843;44.728;10.396;2023-07-22T12:50:49;12.15;;;5.85;;
59052;SDS011;44843;44.728;10.396;2023-07-22T12:53:15;11.38;;;5.45;;
59052;SDS011;44843;44.728;10.396;2023-07-22T12:55:41;15.05;;;5.45;;
59052;SDS011;44843;44.728;10.396;2023-07-22T12:58:06;11.60;;;4.68;;
59052;SDS011;44843;44.728;10.396;2023-07-22T13:00:32;9.45;;;4.78;;
59052;SDS011;44843;44.728;10.396;2023-07-22T13:02:57;9.10;;;5.38;;
59052;SDS011;44843;44.728;10.396;2023-07-22T13:05:23;12.68;;;5.43;;
59052;SDS011;44843;44.728;10.396;2023-07-22T13:07:48;8.63;;;5.38;;
59052;SDS011;44843;44.728;10.396;2023-07-22T13:10:14;19.80;;;8.02;;
59052;SDS011;44843;44.728;10.396;2023-07-22T13:12:43;15.35;;;8.02;;
59052;SDS011;44843;44.728;10.396;2023-07-22T13:15:08;18.60;;;9.68;;
59052;SDS011;44843;44.728;10.396;2023-07-22T13:17:34;17.65;;;9.07;;
59052;SDS011;44843;44.728;10.396;2023-07-22T13:19:59;17.50;;;9.57;;
59052;SDS011;44843;44.728;10.396;2023-07-22T13:22:25;20.95;;;9.75;;
59052;SDS011;44843;44.728;10.396;2023-07-22T13:24:50;16.13;;;8.13;;
59052;SDS011;44843;44.728;10.396;2023-07-22T13:27:15;14.75;;;8.57;;
59052;SDS011;44843;44.728;10.396;2023-07-22T13:29:41;15.38;;;7.97;;
59052;SDS011;44843;44.728;10.396;2023-07-22T13:32:06;17.13;;;8.52;;
59052;SDS011;44843;44.728;10.396;2023-07-22T13:34:32;22.17;;;8.55;;
59052;SDS011;44843;44.728;10.396;2023-07-22T13:36:57;17.20;;;9.20;;
59052;SDS011;44843;44.728;10.396;2023-07-22T13:39:23;14.57;;;7.28;;
59052;SDS011;44843;44.728;10.396;2023-07-22T13:41:48;16.42;;;7.93;;
59052;SDS011;44843;44.728;10.396;2023-07-22T13:44:15;14.18;;;8.07;;
59052;SDS011;44843;44.728;10.396;2023-07-22T13:46:40;17.17;;;8.05;;
59052;SDS011;44843;44.728;10.396;2023-07-22T13:49:06;14.45;;;7.93;;
59052;SDS011;44843;44.728;10.396;2023-07-22T13:51:31;13.40;;;7.78;;
59052;SDS011;44843;44.728;10.396;2023-07-22T13:53:56;13.80;;;7.82;;
59052;SDS011;44843;44.728;10.396;2023-07-22T13:56:23;14.18;;;6.78;;
59052;SDS011;44843;44.728;10.396;2023-07-22T13:58:49;13.02;;;6.70;;
59052;SDS011;44843;44.728;10.396;2023-07-22T14:01:14;10.35;;;6.55;;
59052;SDS011;44843;44.728;10.396;2023-07-22T14:03:40;10.82;;;6.88;;
59052;SDS011;44843;44.728;10.396;2023-07-22T14:06:05;18.50;;;6.78;;
59052;SDS011;44843;44.728;10.396;2023-07-22T14:08:30;14.50;;;6.88;;
59052;SDS011;44843;44.728;10.396;2023-07-22T14:10:56;13.57;;;6.53;;
59052;SDS011;44843;44.728;10.396;2023-07-22T14:13:21;14.77;;;7.25;;
59052;SDS011;44843;44.728;10.396;2023-07-22T14:15:47;11.38;;;6.35;;
59052;SDS011;44843;44.728;10.396;2023-07-22T14:18:12;12.57;;;7.00;;
59052;SDS011;44843;44.728;10.396;2023-07-22T14:20:42;14.38;;;6.68;;
59052;SDS011;44843;44.728;10.396;2023-07-22T14:23:08;12.45;;;6.20;;
59052;SDS011;44843;44.728;10.396;2023-07-22T14:25:33;13.02;;;7.18;;
59052;SDS011;44843;44.728;10.396;2023-07-22T14:27:58;15.45;;;8.10;;
59052;SDS011;44843;44.728;10.396;2023-07-22T14:30:24;10.60;;;6.07;;
59052;SDS011;44843;44.728;10.396;2023-07-22T14:32:49;10.25;;;6.25;;
59052;SDS011;44843;44.728;10.396;2023-07-22T14:35:14;12.60;;;6.45;;
59052;SDS011;44843;44.728;10.396;2023-07-22T14:37:40;11.85;;;6.57;;
59052;SDS011;44843;44.728;10.396;2023-07-22T14:40:05;13.13;;;5.97;;
59052;SDS011;44843;44.728;10.396;2023-07-22T14:42:33;16.08;;;8.25;;